Terminal Aerodrome Forecast
Issued by NWS Columbia, SC

Current Version | Previous Version | Text Only | Print | Product List | Glossary On
Versions: 1 2 3 4 5 6 7 8 9 10 11 12 13 14 15 16 17 18 19 20 21 22 23 24 25 26 27 28 29 30 31 32 33 34 35 36 37 38 39 40 41 42 43 44 45 46 47 48 49 50
000
FTUS42 KCAE 060928 AAA
TAFAGS
TAF AMD
KAGS 060928Z 0609/0706 10006KT P6SM -RA OVC006 WS020/17040KT
     FM061400 10006KT 2SM -RA BR OVC007
     FM062000 27010G15KT 4SM BR OVC012
     FM062300 31004KT 5SM BR SCT015 BKN250=

USA.gov is the U.S. government's official web portal to all federal, state and local government web resources and services.